sensor_id;sensor_type;location;lat;lon;timestamp;temperature;humidity
4578;DHT22;2301;47.354;8.528;2022-10-16T00:09:57;17.60;95.00
4578;DHT22;2301;47.354;8.528;2022-10-16T01:12:26;17.70;95.50
4578;DHT22;2301;47.354;8.528;2022-10-16T01:15:21;17.70;95.50
4578;DHT22;2301;47.354;8.528;2022-10-16T01:24:33;17.80;95.40
4578;DHT22;2301;47.354;8.528;2022-10-16T01:30:39;17.80;95.20
4578;DHT22;2301;47.354;8.528;2022-10-16T01:53:24;17.80;95.00
4578;DHT22;2301;47.354;8.528;2022-10-16T01:55:54;17.80;95.00
4578;DHT22;2301;47.354;8.528;2022-10-16T01:58:57;17.70;95.00
4578;DHT22;2301;47.354;8.528;2022-10-16T02:02:06;17.80;95.00
4578;DHT22;2301;47.354;8.528;2022-10-16T02:04:42;17.80;94.90
4578;DHT22;2301;47.354;8.528;2022-10-16T02:07:34;17.80;94.70
4578;DHT22;2301;47.354;8.528;2022-10-16T02:13:48;17.70;94.40
4578;DHT22;2301;47.354;8.528;2022-10-16T02:23:20;17.60;94.40
4578;DHT22;2301;47.354;8.528;2022-10-16T02:25:57;17.50;94.60
4578;DHT22;2301;47.354;8.528;2022-10-16T02:28:29;17.50;94.50
4578;DHT22;2301;47.354;8.528;2022-10-16T02:31:08;17.50;94.50
4578;DHT22;2301;47.354;8.528;2022-10-16T02:34:17;17.60;94.50
4578;DHT22;2301;47.354;8.528;2022-10-16T02:36:56;17.50;94.20
4578;DHT22;2301;47.354;8.528;2022-10-16T02:39:46;17.50;94.30
4578;DHT22;2301;47.354;8.528;2022-10-16T02:42:34;17.50;94.20
4578;DHT22;2301;47.354;8.528;2022-10-16T02:45:04;17.50;94.30
4578;DHT22;2301;47.354;8.528;2022-10-16T02:47:31;17.40;94.30
4578;DHT22;2301;47.354;8.528;2022-10-16T02:49:59;17.40;94.30
4578;DHT22;2301;47.354;8.528;2022-10-16T02:52:29;17.40;94.30
4578;DHT22;2301;47.354;8.528;2022-10-16T02:54:56;17.40;94.30
4578;DHT22;2301;47.354;8.528;2022-10-16T02:57:27;17.40;94.10
4578;DHT22;2301;47.354;8.528;2022-10-16T02:59:58;17.40;93.80
4578;DHT22;2301;47.354;8.528;2022-10-16T03:02:26;17.40;94.00
4578;DHT22;2301;47.354;8.528;2022-10-16T03:04:55;17.40;94.00
4578;DHT22;2301;47.354;8.528;2022-10-16T03:07:41;17.40;94.10
4578;DHT22;2301;47.354;8.528;2022-10-16T03:16:52;17.30;94.00
4578;DHT22;2301;47.354;8.528;2022-10-16T03:19:23;17.30;94.10
4578;DHT22;2301;47.354;8.528;2022-10-16T03:21:51;17.30;94.10
4578;DHT22;2301;47.354;8.528;2022-10-16T03:24:18;17.20;94.10
4578;DHT22;2301;47.354;8.528;2022-10-16T03:26:46;17.20;93.90
4578;DHT22;2301;47.354;8.528;2022-10-16T03:29:16;17.20;94.10
4578;DHT22;2301;47.354;8.528;2022-10-16T03:32:00;17.20;94.10
4578;DHT22;2301;47.354;8.528;2022-10-16T03:34:39;17.20;94.20
4578;DHT22;2301;47.354;8.528;2022-10-16T03:37:06;17.20;94.30
4578;DHT22;2301;47.354;8.528;2022-10-16T03:39:33;17.20;94.30
4578;DHT22;2301;47.354;8.528;2022-10-16T03:42:00;17.20;94.30
4578;DHT22;2301;47.354;8.528;2022-10-16T03:44:28;17.20;94.30
4578;DHT22;2301;47.354;8.528;2022-10-16T03:46:55;17.20;94.10
4578;DHT22;2301;47.354;8.528;2022-10-16T03:49:25;17.20;94.30
4578;DHT22;2301;47.354;8.528;2022-10-16T03:51:53;17.20;94.30
4578;DHT22;2301;47.354;8.528;2022-10-16T03:54:20;17.20;94.20
4578;DHT22;2301;47.354;8.528;2022-10-16T03:56:47;17.20;94.20
4578;DHT22;2301;47.354;8.528;2022-10-16T03:59:14;17.20;94.20
4578;DHT22;2301;47.354;8.528;2022-10-16T04:01:41;17.10;94.20
4578;DHT22;2301;47.354;8.528;2022-10-16T04:04:09;17.20;94.40
4578;DHT22;2301;47.354;8.528;2022-10-16T04:06:37;17.20;94.40
4578;DHT22;2301;47.354;8.528;2022-10-16T04:09:04;17.20;94.30
4578;DHT22;2301;47.354;8.528;2022-10-16T04:11:31;17.20;94.30
4578;DHT22;2301;47.354;8.528;2022-10-16T04:13:58;17.20;94.30
4578;DHT22;2301;47.354;8.528;2022-10-16T04:16:28;17.20;94.30
4578;DHT22;2301;47.354;8.528;2022-10-16T04:18:58;17.30;94.20
4578;DHT22;2301;47.354;8.528;2022-10-16T04:21:25;17.30;94.10
4578;DHT22;2301;47.354;8.528;2022-10-16T04:23:53;17.30;94.10
4578;DHT22;2301;47.354;8.528;2022-10-16T04:26:20;17.30;94.10
4578;DHT22;2301;47.354;8.528;2022-10-16T04:28:47;17.30;94.10
4578;DHT22;2301;47.354;8.528;2022-10-16T04:31:15;17.30;94.00
4578;DHT22;2301;47.354;8.528;2022-10-16T04:33:50;17.40;94.20
4578;DHT22;2301;47.354;8.528;2022-10-16T04:36:18;17.40;93.80
4578;DHT22;2301;47.354;8.528;2022-10-16T04:38:45;17.40;93.80
4578;DHT22;2301;47.354;8.528;2022-10-16T04:41:14;17.40;93.70
4578;DHT22;2301;47.354;8.528;2022-10-16T04:43:41;17.40;93.70
4578;DHT22;2301;47.354;8.528;2022-10-16T04:46:08;17.40;94.00
4578;DHT22;2301;47.354;8.528;2022-10-16T04:48:42;17.40;93.50
4578;DHT22;2301;47.354;8.528;2022-10-16T04:51:10;17.40;93.50
4578;DHT22;2301;47.354;8.528;2022-10-16T04:53:38;17.40;93.50
4578;DHT22;2301;47.354;8.528;2022-10-16T04:56:05;17.40;93.40
4578;DHT22;2301;47.354;8.528;2022-10-16T04:58:40;17.30;93.30
4578;DHT22;2301;47.354;8.528;2022-10-16T05:01:08;17.30;93.20
4578;DHT22;2301;47.354;8.528;2022-10-16T05:03:41;17.30;93.20
4578;DHT22;2301;47.354;8.528;2022-10-16T05:06:09;17.30;93.20
4578;DHT22;2301;47.354;8.528;2022-10-16T05:08:36;17.30;93.20
4578;DHT22;2301;47.354;8.528;2022-10-16T05:11:03;17.20;93.00
4578;DHT22;2301;47.354;8.528;2022-10-16T05:13:30;17.20;93.10
4578;DHT22;2301;47.354;8.528;2022-10-16T05:15:59;17.20;93.20
4578;DHT22;2301;47.354;8.528;2022-10-16T05:18:26;17.20;93.10
4578;DHT22;2301;47.354;8.528;2022-10-16T05:20:53;17.20;93.20
4578;DHT22;2301;47.354;8.528;2022-10-16T05:23:20;17.20;93.10
4578;DHT22;2301;47.354;8.528;2022-10-16T05:25:52;17.20;93.20
4578;DHT22;2301;47.354;8.528;2022-10-16T05:28:20;17.20;93.40
4578;DHT22;2301;47.354;8.528;2022-10-16T05:30:47;17.20;93.50
4578;DHT22;2301;47.354;8.528;2022-10-16T05:33:15;17.20;93.40
4578;DHT22;2301;47.354;8.528;2022-10-16T05:35:43;17.20;93.40
4578;DHT22;2301;47.354;8.528;2022-10-16T05:38:10;17.20;93.40
4578;DHT22;2301;47.354;8.528;2022-10-16T05:40:39;17.20;93.40
4578;DHT22;2301;47.354;8.528;2022-10-16T05:43:31;17.20;93.40
4578;DHT22;2301;47.354;8.528;2022-10-16T05:46:01;17.20;93.40
4578;DHT22;2301;47.354;8.528;2022-10-16T05:48:29;17.20;93.50
4578;DHT22;2301;47.354;8.528;2022-10-16T05:50:58;17.20;93.30
4578;DHT22;2301;47.354;8.528;2022-10-16T05:53:26;17.20;93.40
4578;DHT22;2301;47.354;8.528;2022-10-16T05:55:56;17.20;93.40
4578;DHT22;2301;47.354;8.528;2022-10-16T05:58:24;17.30;93.20
4578;DHT22;2301;47.354;8.528;2022-10-16T06:00:55;17.30;93.20
4578;DHT22;2301;47.354;8.528;2022-10-16T06:03:26;17.30;93.10
4578;DHT22;2301;47.354;8.528;2022-10-16T06:05:55;17.30;93.20
4578;DHT22;2301;47.354;8.528;2022-10-16T06:08:23;17.30;93.10
4578;DHT22;2301;47.354;8.528;2022-10-16T06:11:01;17.30;93.20
4578;DHT22;2301;47.354;8.528;2022-10-16T06:13:28;17.30;93.20
4578;DHT22;2301;47.354;8.528;2022-10-16T06:15:57;17.30;93.20
4578;DHT22;2301;47.354;8.528;2022-10-16T06:18:25;17.30;93.20
4578;DHT22;2301;47.354;8.528;2022-10-16T06:20:54;17.30;93.00
4578;DHT22;2301;47.354;8.528;2022-10-16T06:23:22;17.30;92.90
4578;DHT22;2301;47.354;8.528;2022-10-16T06:25:51;17.30;93.00
4578;DHT22;2301;47.354;8.528;2022-10-16T06:39:03;17.40;93.10
4578;DHT22;2301;47.354;8.528;2022-10-16T06:45:32;17.50;92.90
4578;DHT22;2301;47.354;8.528;2022-10-16T06:54:59;17.60;92.60
4578;DHT22;2301;47.354;8.528;2022-10-16T06:57:41;17.60;92.40
4578;DHT22;2301;47.354;8.528;2022-10-16T07:00:26;17.70;92.40
4578;DHT22;2301;47.354;8.528;2022-10-16T07:06:23;17.80;92.30
4578;DHT22;2301;47.354;8.528;2022-10-16T07:08:54;17.80;92.50
4578;DHT22;2301;47.354;8.528;2022-10-16T07:14:51;17.90;92.90
4578;DHT22;2301;47.354;8.528;2022-10-16T07:17:22;18.00;93.00
4578;DHT22;2301;47.354;8.528;2022-10-16T07:23:43;18.10;92.80
4578;DHT22;2301;47.354;8.528;2022-10-16T07:26:14;18.10;92.60
4578;DHT22;2301;47.354;8.528;2022-10-16T07:29:15;18.10;92.60
4578;DHT22;2301;47.354;8.528;2022-10-16T07:35:15;18.00;92.50
4578;DHT22;2301;47.354;8.528;2022-10-16T07:37:52;18.00;92.50
4578;DHT22;2301;47.354;8.528;2022-10-16T07:40:45;18.00;92.60
4578;DHT22;2301;47.354;8.528;2022-10-16T07:43:20;17.90;92.70
4578;DHT22;2301;47.354;8.528;2022-10-16T07:45:55;17.90;92.80
4578;DHT22;2301;47.354;8.528;2022-10-16T07:48:30;17.90;93.00
4578;DHT22;2301;47.354;8.528;2022-10-16T07:51:06;17.90;93.10
4578;DHT22;2301;47.354;8.528;2022-10-16T07:53:33;17.90;93.30
4578;DHT22;2301;47.354;8.528;2022-10-16T07:56:02;17.90;92.90
4578;DHT22;2301;47.354;8.528;2022-10-16T07:58:29;17.90;92.40
4578;DHT22;2301;47.354;8.528;2022-10-16T08:00:58;17.90;92.10
4578;DHT22;2301;47.354;8.528;2022-10-16T08:03:25;17.80;92.00
4578;DHT22;2301;47.354;8.528;2022-10-16T08:05:52;17.80;92.10
4578;DHT22;2301;47.354;8.528;2022-10-16T08:08:21;17.80;92.20
4578;DHT22;2301;47.354;8.528;2022-10-16T08:10:48;17.90;93.10
4578;DHT22;2301;47.354;8.528;2022-10-16T08:13:15;18.20;93.90
4578;DHT22;2301;47.354;8.528;2022-10-16T08:15:42;18.50;94.10
4578;DHT22;2301;47.354;8.528;2022-10-16T08:18:11;18.80;93.80
4578;DHT22;2301;47.354;8.528;2022-10-16T08:21:16;19.00;92.70
4578;DHT22;2301;47.354;8.528;2022-10-16T08:23:45;19.40;92.50
4578;DHT22;2301;47.354;8.528;2022-10-16T08:26:12;19.70;92.00
4578;DHT22;2301;47.354;8.528;2022-10-16T08:28:39;20.10;91.60
4578;DHT22;2301;47.354;8.528;2022-10-16T08:31:08;20.50;91.40
4578;DHT22;2301;47.354;8.528;2022-10-16T08:33:35;20.70;90.80
4578;DHT22;2301;47.354;8.528;2022-10-16T08:36:03;21.00;90.10
4578;DHT22;2301;47.354;8.528;2022-10-16T08:38:31;21.30;89.30
4578;DHT22;2301;47.354;8.528;2022-10-16T08:41:09;21.50;87.50
4578;DHT22;2301;47.354;8.528;2022-10-16T08:43:56;21.70;85.40
4578;DHT22;2301;47.354;8.528;2022-10-16T08:46:37;21.80;83.80
4578;DHT22;2301;47.354;8.528;2022-10-16T08:49:11;22.10;84.60
4578;DHT22;2301;47.354;8.528;2022-10-16T08:51:39;22.30;83.60
4578;DHT22;2301;47.354;8.528;2022-10-16T08:54:15;22.50;83.10
4578;DHT22;2301;47.354;8.528;2022-10-16T08:56:46;22.70;81.90
4578;DHT22;2301;47.354;8.528;2022-10-16T08:59:14;23.00;81.20
4578;DHT22;2301;47.354;8.528;2022-10-16T09:01:44;23.20;80.10
4578;DHT22;2301;47.354;8.528;2022-10-16T09:07:30;23.70;77.30
4578;DHT22;2301;47.354;8.528;2022-10-16T09:10:21;23.80;76.50
4578;DHT22;2301;47.354;8.528;2022-10-16T09:12:58;24.00;74.90
4578;DHT22;2301;47.354;8.528;2022-10-16T09:15:34;24.10;74.40
4578;DHT22;2301;47.354;8.528;2022-10-16T09:18:06;24.20;73.10
4578;DHT22;2301;47.354;8.528;2022-10-16T09:20:42;24.30;73.00
4578;DHT22;2301;47.354;8.528;2022-10-16T09:23:16;24.40;70.40
4578;DHT22;2301;47.354;8.528;2022-10-16T09:25:45;24.50;69.60
4578;DHT22;2301;47.354;8.528;2022-10-16T09:28:16;24.50;68.50
4578;DHT22;2301;47.354;8.528;2022-10-16T09:30:43;24.60;67.80
4578;DHT22;2301;47.354;8.528;2022-10-16T09:33:11;24.70;66.90
4578;DHT22;2301;47.354;8.528;2022-10-16T09:35:41;24.80;66.50
4578;DHT22;2301;47.354;8.528;2022-10-16T09:38:09;25.00;66.20
4578;DHT22;2301;47.354;8.528;2022-10-16T09:40:46;25.10;65.00
4578;DHT22;2301;47.354;8.528;2022-10-16T09:43:20;25.30;64.60
4578;DHT22;2301;47.354;8.528;2022-10-16T09:45:56;25.40;63.30
4578;DHT22;2301;47.354;8.528;2022-10-16T09:48:27;25.60;62.50
4578;DHT22;2301;47.354;8.528;2022-10-16T09:50:59;25.70;61.90
4578;DHT22;2301;47.354;8.528;2022-10-16T09:53:38;25.80;61.20
4578;DHT22;2301;47.354;8.528;2022-10-16T09:56:05;25.80;60.80
4578;DHT22;2301;47.354;8.528;2022-10-16T09:58:34;25.90;60.40
4578;DHT22;2301;47.354;8.528;2022-10-16T10:01:01;25.90;58.70
4578;DHT22;2301;47.354;8.528;2022-10-16T10:03:37;25.90;58.50
4578;DHT22;2301;47.354;8.528;2022-10-16T10:06:15;26.00;57.70
4578;DHT22;2301;47.354;8.528;2022-10-16T10:08:56;26.10;58.20
4578;DHT22;2301;47.354;8.528;2022-10-16T10:11:45;26.20;57.40
4578;DHT22;2301;47.354;8.528;2022-10-16T10:14:27;26.30;58.60
4578;DHT22;2301;47.354;8.528;2022-10-16T10:17:11;26.20;58.10
4578;DHT22;2301;47.354;8.528;2022-10-16T10:19:40;26.30;59.20
4578;DHT22;2301;47.354;8.528;2022-10-16T10:22:28;26.30;58.70
4578;DHT22;2301;47.354;8.528;2022-10-16T10:24:56;26.40;56.90
4578;DHT22;2301;47.354;8.528;2022-10-16T10:27:31;26.40;56.00
4578;DHT22;2301;47.354;8.528;2022-10-16T10:30:04;26.40;55.60
4578;DHT22;2301;47.354;8.528;2022-10-16T10:32:38;26.20;54.80
4578;DHT22;2301;47.354;8.528;2022-10-16T10:35:16;26.30;55.20
4578;DHT22;2301;47.354;8.528;2022-10-16T10:38:02;26.30;57.30
4578;DHT22;2301;47.354;8.528;2022-10-16T10:40:44;26.30;55.10
4578;DHT22;2301;47.354;8.528;2022-10-16T10:43:26;26.40;56.30
4578;DHT22;2301;47.354;8.528;2022-10-16T10:46:00;26.40;55.20
4578;DHT22;2301;47.354;8.528;2022-10-16T10:48:49;26.50;55.90
4578;DHT22;2301;47.354;8.528;2022-10-16T10:51:21;26.60;56.30
4578;DHT22;2301;47.354;8.528;2022-10-16T10:53:55;26.60;55.20
4578;DHT22;2301;47.354;8.528;2022-10-16T10:56:41;26.60;55.20
4578;DHT22;2301;47.354;8.528;2022-10-16T11:02:13;26.80;57.00
4578;DHT22;2301;47.354;8.528;2022-10-16T11:07:57;27.00;55.00
4578;DHT22;2301;47.354;8.528;2022-10-16T11:10:28;26.90;55.00
4578;DHT22;2301;47.354;8.528;2022-10-16T11:13:00;27.00;55.70
4578;DHT22;2301;47.354;8.528;2022-10-16T11:15:33;27.00;55.60
4578;DHT22;2301;47.354;8.528;2022-10-16T11:18:06;27.10;55.90
4578;DHT22;2301;47.354;8.528;2022-10-16T11:20:37;27.10;55.70
4578;DHT22;2301;47.354;8.528;2022-10-16T11:23:10;27.20;55.70
4578;DHT22;2301;47.354;8.528;2022-10-16T11:25:40;27.20;55.00
4578;DHT22;2301;47.354;8.528;2022-10-16T11:28:11;27.20;54.60
4578;DHT22;2301;47.354;8.528;2022-10-16T11:30:43;27.10;53.20
4578;DHT22;2301;47.354;8.528;2022-10-16T11:33:23;26.90;52.70
4578;DHT22;2301;47.354;8.528;2022-10-16T11:35:54;26.70;52.90
4578;DHT22;2301;47.354;8.528;2022-10-16T11:38:28;26.60;54.00
4578;DHT22;2301;47.354;8.528;2022-10-16T11:41:00;26.70;54.90
4578;DHT22;2301;47.354;8.528;2022-10-16T11:43:34;26.70;54.70
4578;DHT22;2301;47.354;8.528;2022-10-16T11:46:08;26.80;54.50
4578;DHT22;2301;47.354;8.528;2022-10-16T11:48:41;26.80;54.50
4578;DHT22;2301;47.354;8.528;2022-10-16T11:51:16;26.80;54.40
4578;DHT22;2301;47.354;8.528;2022-10-16T11:53:49;26.80;54.20
4578;DHT22;2301;47.354;8.528;2022-10-16T11:56:19;26.90;54.70
4578;DHT22;2301;47.354;8.528;2022-10-16T11:58:53;27.00;54.90
4578;DHT22;2301;47.354;8.528;2022-10-16T12:01:27;27.10;54.60
4578;DHT22;2301;47.354;8.528;2022-10-16T12:04:05;27.20;54.50
4578;DHT22;2301;47.354;8.528;2022-10-16T12:06:37;27.30;54.60
4578;DHT22;2301;47.354;8.528;2022-10-16T12:09:15;27.40;54.50
4578;DHT22;2301;47.354;8.528;2022-10-16T12:11:46;27.50;55.10
4578;DHT22;2301;47.354;8.528;2022-10-16T12:14:22;27.50;54.60
4578;DHT22;2301;47.354;8.528;2022-10-16T12:17:01;27.60;54.60
4578;DHT22;2301;47.354;8.528;2022-10-16T12:19:32;27.70;54.70
4578;DHT22;2301;47.354;8.528;2022-10-16T12:22:00;27.60;53.10
4578;DHT22;2301;47.354;8.528;2022-10-16T12:24:34;27.60;53.10
4578;DHT22;2301;47.354;8.528;2022-10-16T12:27:03;27.60;52.90
4578;DHT22;2301;47.354;8.528;2022-10-16T12:29:36;27.40;53.00
4578;DHT22;2301;47.354;8.528;2022-10-16T12:32:05;27.40;53.30
4578;DHT22;2301;47.354;8.528;2022-10-16T12:34:39;27.40;54.20
4578;DHT22;2301;47.354;8.528;2022-10-16T12:37:13;27.40;54.40
4578;DHT22;2301;47.354;8.528;2022-10-16T12:39:41;27.40;53.10
4578;DHT22;2301;47.354;8.528;2022-10-16T12:42:23;27.50;54.00
4578;DHT22;2301;47.354;8.528;2022-10-16T12:44:57;27.50;53.90
4578;DHT22;2301;47.354;8.528;2022-10-16T12:47:36;27.60;54.40
4578;DHT22;2301;47.354;8.528;2022-10-16T12:50:24;27.60;54.00
4578;DHT22;2301;47.354;8.528;2022-10-16T12:52:51;27.70;53.00
4578;DHT22;2301;47.354;8.528;2022-10-16T12:55:19;27.70;53.20
4578;DHT22;2301;47.354;8.528;2022-10-16T12:58:03;27.70;53.10
4578;DHT22;2301;47.354;8.528;2022-10-16T13:00:39;27.80;52.10
4578;DHT22;2301;47.354;8.528;2022-10-16T13:03:48;27.80;52.20
4578;DHT22;2301;47.354;8.528;2022-10-16T13:06:26;27.80;52.60
4578;DHT22;2301;47.354;8.528;2022-10-16T13:09:09;27.80;52.20
4578;DHT22;2301;47.354;8.528;2022-10-16T13:11:52;27.80;51.80
4578;DHT22;2301;47.354;8.528;2022-10-16T13:14:44;27.80;51.40
4578;DHT22;2301;47.354;8.528;2022-10-16T13:17:20;27.80;52.50
4578;DHT22;2301;47.354;8.528;2022-10-16T13:19:56;27.80;53.30
4578;DHT22;2301;47.354;8.528;2022-10-16T13:22:32;27.80;52.60
4578;DHT22;2301;47.354;8.528;2022-10-16T13:25:15;27.80;52.10
4578;DHT22;2301;47.354;8.528;2022-10-16T13:27:50;27.90;50.90
4578;DHT22;2301;47.354;8.528;2022-10-16T13:30:22;27.90;51.60
4578;DHT22;2301;47.354;8.528;2022-10-16T13:32:55;27.90;51.40
4578;DHT22;2301;47.354;8.528;2022-10-16T13:35:27;27.90;52.10
4578;DHT22;2301;47.354;8.528;2022-10-16T13:38:05;28.00;51.80
4578;DHT22;2301;47.354;8.528;2022-10-16T13:40:32;28.00;51.70
4578;DHT22;2301;47.354;8.528;2022-10-16T13:43:00;28.00;52.30
4578;DHT22;2301;47.354;8.528;2022-10-16T13:45:27;28.00;51.40
4578;DHT22;2301;47.354;8.528;2022-10-16T13:48:02;28.00;50.70
4578;DHT22;2301;47.354;8.528;2022-10-16T13:50:29;28.00;51.10
4578;DHT22;2301;47.354;8.528;2022-10-16T13:53:05;28.00;51.20
4578;DHT22;2301;47.354;8.528;2022-10-16T13:55:32;27.90;50.60
4578;DHT22;2301;47.354;8.528;2022-10-16T13:58:07;27.90;50.90
4578;DHT22;2301;47.354;8.528;2022-10-16T14:00:34;27.90;51.20
4578;DHT22;2301;47.354;8.528;2022-10-16T14:03:03;27.90;51.10
4578;DHT22;2301;47.354;8.528;2022-10-16T14:05:30;27.90;51.10
4578;DHT22;2301;47.354;8.528;2022-10-16T14:07:58;27.90;51.70
4578;DHT22;2301;47.354;8.528;2022-10-16T14:10:28;27.90;51.70
4578;DHT22;2301;47.354;8.528;2022-10-16T14:13:01;27.90;51.30
4578;DHT22;2301;47.354;8.528;2022-10-16T14:15:29;27.90;51.20
4578;DHT22;2301;47.354;8.528;2022-10-16T14:17:58;27.90;51.80
4578;DHT22;2301;47.354;8.528;2022-10-16T14:20:27;27.90;52.10
4578;DHT22;2301;47.354;8.528;2022-10-16T14:23:00;27.80;51.50
4578;DHT22;2301;47.354;8.528;2022-10-16T14:25:30;27.80;51.80
4578;DHT22;2301;47.354;8.528;2022-10-16T14:27:59;27.80;52.00
4578;DHT22;2301;47.354;8.528;2022-10-16T14:30:28;27.80;51.80
4578;DHT22;2301;47.354;8.528;2022-10-16T14:32:56;27.80;51.80
4578;DHT22;2301;47.354;8.528;2022-10-16T14:35:26;27.80;51.70
4578;DHT22;2301;47.354;8.528;2022-10-16T14:37:54;27.80;51.40
4578;DHT22;2301;47.354;8.528;2022-10-16T14:40:23;27.70;51.30
4578;DHT22;2301;47.354;8.528;2022-10-16T14:42:52;27.80;51.70
4578;DHT22;2301;47.354;8.528;2022-10-16T14:45:21;27.80;51.70
4578;DHT22;2301;47.354;8.528;2022-10-16T14:47:50;27.70;51.30
4578;DHT22;2301;47.354;8.528;2022-10-16T14:50:17;27.70;51.30
4578;DHT22;2301;47.354;8.528;2022-10-16T14:52:44;27.60;52.10
4578;DHT22;2301;47.354;8.528;2022-10-16T14:55:11;27.60;54.10
4578;DHT22;2301;47.354;8.528;2022-10-16T14:57:38;27.50;54.10
4578;DHT22;2301;47.354;8.528;2022-10-16T15:00:15;27.50;55.10
4578;DHT22;2301;47.354;8.528;2022-10-16T15:02:43;27.40;55.40
4578;DHT22;2301;47.354;8.528;2022-10-16T15:05:16;27.30;55.60
4578;DHT22;2301;47.354;8.528;2022-10-16T15:07:43;27.30;56.50
4578;DHT22;2301;47.354;8.528;2022-10-16T15:10:10;27.10;57.30
4578;DHT22;2301;47.354;8.528;2022-10-16T15:12:38;27.10;57.30
4578;DHT22;2301;47.354;8.528;2022-10-16T15:18:06;26.90;57.70
4578;DHT22;2301;47.354;8.528;2022-10-16T15:20:34;26.80;57.70
4578;DHT22;2301;47.354;8.528;2022-10-16T15:23:04;26.70;57.50
4578;DHT22;2301;47.354;8.528;2022-10-16T15:25:35;26.60;57.20
4578;DHT22;2301;47.354;8.528;2022-10-16T15:28:04;26.60;56.70
4578;DHT22;2301;47.354;8.528;2022-10-16T15:30:31;26.50;56.90
4578;DHT22;2301;47.354;8.528;2022-10-16T15:32:58;26.40;57.00
4578;DHT22;2301;47.354;8.528;2022-10-16T15:35:27;26.30;56.90
4578;DHT22;2301;47.354;8.528;2022-10-16T15:37:54;26.20;57.60
4578;DHT22;2301;47.354;8.528;2022-10-16T15:40:21;26.10;58.00
4578;DHT22;2301;47.354;8.528;2022-10-16T15:42:49;26.00;58.00
4578;DHT22;2301;47.354;8.528;2022-10-16T15:45:16;25.90;58.20
4578;DHT22;2301;47.354;8.528;2022-10-16T15:47:44;25.80;58.40
4578;DHT22;2301;47.354;8.528;2022-10-16T15:50:12;25.70;58.80
4578;DHT22;2301;47.354;8.528;2022-10-16T15:52:42;25.50;58.70
4578;DHT22;2301;47.354;8.528;2022-10-16T15:55:10;25.40;58.70
4578;DHT22;2301;47.354;8.528;2022-10-16T15:57:38;25.30;58.90
4578;DHT22;2301;47.354;8.528;2022-10-16T16:00:08;25.20;59.20
4578;DHT22;2301;47.354;8.528;2022-10-16T16:02:35;25.10;59.60
4578;DHT22;2301;47.354;8.528;2022-10-16T16:05:02;25.00;60.00
4578;DHT22;2301;47.354;8.528;2022-10-16T16:07:32;24.80;60.30
4578;DHT22;2301;47.354;8.528;2022-10-16T16:10:01;24.70;61.00
4578;DHT22;2301;47.354;8.528;2022-10-16T16:12:28;24.60;61.90
4578;DHT22;2301;47.354;8.528;2022-10-16T16:14:54;24.50;62.70
4578;DHT22;2301;47.354;8.528;2022-10-16T16:17:21;24.40;63.10
4578;DHT22;2301;47.354;8.528;2022-10-16T16:19:49;24.30;63.60
4578;DHT22;2301;47.354;8.528;2022-10-16T16:22:16;24.10;64.10
4578;DHT22;2301;47.354;8.528;2022-10-16T16:24:44;24.00;64.40
4578;DHT22;2301;47.354;8.528;2022-10-16T16:27:12;23.90;64.80
4578;DHT22;2301;47.354;8.528;2022-10-16T16:29:39;23.80;65.10
4578;DHT22;2301;47.354;8.528;2022-10-16T16:32:06;23.70;65.40
4578;DHT22;2301;47.354;8.528;2022-10-16T16:34:33;23.60;65.70
4578;DHT22;2301;47.354;8.528;2022-10-16T16:37:00;23.50;66.20
4578;DHT22;2301;47.354;8.528;2022-10-16T16:39:27;23.30;66.50
4578;DHT22;2301;47.354;8.528;2022-10-16T16:41:55;23.20;66.90
4578;DHT22;2301;47.354;8.528;2022-10-16T16:44:23;23.10;67.10
4578;DHT22;2301;47.354;8.528;2022-10-16T16:46:51;22.90;67.30
4578;DHT22;2301;47.354;8.528;2022-10-16T16:49:18;22.80;67.60
4578;DHT22;2301;47.354;8.528;2022-10-16T16:51:45;22.70;67.80
4578;DHT22;2301;47.354;8.528;2022-10-16T16:54:12;22.60;68.10
4578;DHT22;2301;47.354;8.528;2022-10-16T16:56:39;22.50;68.20
4578;DHT22;2301;47.354;8.528;2022-10-16T16:59:12;22.40;68.40
4578;DHT22;2301;47.354;8.528;2022-10-16T17:01:41;22.30;68.60
4578;DHT22;2301;47.354;8.528;2022-10-16T17:04:09;22.30;69.10
4578;DHT22;2301;47.354;8.528;2022-10-16T17:06:37;22.20;69.30
4578;DHT22;2301;47.354;8.528;2022-10-16T17:09:06;22.00;69.40
4578;DHT22;2301;47.354;8.528;2022-10-16T17:11:33;21.90;69.70
4578;DHT22;2301;47.354;8.528;2022-10-16T17:14:01;21.90;70.10
4578;DHT22;2301;47.354;8.528;2022-10-16T17:16:30;21.70;70.30
4578;DHT22;2301;47.354;8.528;2022-10-16T17:19:00;21.70;70.80
4578;DHT22;2301;47.354;8.528;2022-10-16T17:21:27;21.60;71.10
4578;DHT22;2301;47.354;8.528;2022-10-16T17:23:55;21.50;71.40
4578;DHT22;2301;47.354;8.528;2022-10-16T17:26:22;21.40;71.70
4578;DHT22;2301;47.354;8.528;2022-10-16T17:28:51;21.40;72.10
4578;DHT22;2301;47.354;8.528;2022-10-16T17:31:20;21.30;72.30
4578;DHT22;2301;47.354;8.528;2022-10-16T17:33:48;21.20;72.40
4578;DHT22;2301;47.354;8.528;2022-10-16T17:36:18;21.10;72.60
4578;DHT22;2301;47.354;8.528;2022-10-16T17:38:45;21.10;72.70
4578;DHT22;2301;47.354;8.528;2022-10-16T17:41:13;21.00;72.60
4578;DHT22;2301;47.354;8.528;2022-10-16T17:43:41;21.00;72.80
4578;DHT22;2301;47.354;8.528;2022-10-16T17:46:08;20.90;73.00
4578;DHT22;2301;47.354;8.528;2022-10-16T17:48:39;20.80;73.40
4578;DHT22;2301;47.354;8.528;2022-10-16T17:51:07;20.80;73.60
4578;DHT22;2301;47.354;8.528;2022-10-16T17:53:35;20.70;73.70
4578;DHT22;2301;47.354;8.528;2022-10-16T17:56:03;20.60;73.90
4578;DHT22;2301;47.354;8.528;2022-10-16T17:58:31;20.50;74.00
4578;DHT22;2301;47.354;8.528;2022-10-16T18:00:59;20.50;74.20
4578;DHT22;2301;47.354;8.528;2022-10-16T18:03:26;20.40;74.20
4578;DHT22;2301;47.354;8.528;2022-10-16T18:05:53;20.40;74.40
4578;DHT22;2301;47.354;8.528;2022-10-16T18:08:20;20.30;74.60
4578;DHT22;2301;47.354;8.528;2022-10-16T18:10:49;20.20;74.80
4578;DHT22;2301;47.354;8.528;2022-10-16T18:13:16;20.20;75.20
4578;DHT22;2301;47.354;8.528;2022-10-16T18:15:43;20.20;75.50
4578;DHT22;2301;47.354;8.528;2022-10-16T18:18:11;20.10;75.60
4578;DHT22;2301;47.354;8.528;2022-10-16T18:20:39;20.10;75.70
4578;DHT22;2301;47.354;8.528;2022-10-16T18:23:06;20.10;75.90
4578;DHT22;2301;47.354;8.528;2022-10-16T18:25:33;20.00;76.00
4578;DHT22;2301;47.354;8.528;2022-10-16T18:28:01;20.00;76.20
4578;DHT22;2301;47.354;8.528;2022-10-16T18:30:28;20.00;76.50
4578;DHT22;2301;47.354;8.528;2022-10-16T18:32:55;20.00;76.80
4578;DHT22;2301;47.354;8.528;2022-10-16T18:35:22;19.90;76.90
4578;DHT22;2301;47.354;8.528;2022-10-16T18:37:48;19.90;77.10
4578;DHT22;2301;47.354;8.528;2022-10-16T18:40:18;19.80;77.20
4578;DHT22;2301;47.354;8.528;2022-10-16T18:42:44;19.80;77.50
4578;DHT22;2301;47.354;8.528;2022-10-16T18:45:13;19.70;77.70
4578;DHT22;2301;47.354;8.528;2022-10-16T18:47:40;19.70;77.90
4578;DHT22;2301;47.354;8.528;2022-10-16T18:50:07;19.70;78.10
4578;DHT22;2301;47.354;8.528;2022-10-16T18:52:34;19.60;78.90
4578;DHT22;2301;47.354;8.528;2022-10-16T18:55:01;19.50;78.40
4578;DHT22;2301;47.354;8.528;2022-10-16T18:57:28;19.50;78.70
4578;DHT22;2301;47.354;8.528;2022-10-16T18:59:55;19.40;78.80
4578;DHT22;2301;47.354;8.528;2022-10-16T19:02:24;19.40;79.00
4578;DHT22;2301;47.354;8.528;2022-10-16T19:04:51;19.40;79.30
4578;DHT22;2301;47.354;8.528;2022-10-16T19:07:18;19.40;79.60
4578;DHT22;2301;47.354;8.528;2022-10-16T19:09:44;19.30;79.70
4578;DHT22;2301;47.354;8.528;2022-10-16T19:12:11;19.30;80.10
4578;DHT22;2301;47.354;8.528;2022-10-16T19:14:38;19.30;80.50